sensor_id;sensor_type;location;lat;lon;timestamp;temperature;humidity
18408;DHT22;9330;52.210;21.174;2022-12-18T00:00:50;-5.00;99.90
18408;DHT22;9330;52.210;21.174;2022-12-18T00:03:16;-5.10;99.90
18408;DHT22;9330;52.210;21.174;2022-12-18T00:05:47;-4.70;99.90
18408;DHT22;9330;52.210;21.174;2022-12-18T00:08:14;-4.90;99.90
18408;DHT22;9330;52.210;21.174;2022-12-18T00:10:41;-5.00;99.90
18408;DHT22;9330;52.210;21.174;2022-12-18T00:13:08;-5.00;99.90
18408;DHT22;9330;52.210;21.174;2022-12-18T00:15:36;-4.80;99.90
18408;DHT22;9330;52.210;21.174;2022-12-18T00:18:04;-4.90;99.90
18408;DHT22;9330;52.210;21.174;2022-12-18T00:20:35;-4.90;99.90
18408;DHT22;9330;52.210;21.174;2022-12-18T00:23:03;-4.90;99.90
18408;DHT22;9330;52.210;21.174;2022-12-18T00:25:29;-5.00;99.90
18408;DHT22;9330;52.210;21.174;2022-12-18T00:27:58;-4.90;99.90
18408;DHT22;9330;52.210;21.174;2022-12-18T00:30:25;-4.70;99.90
18408;DHT22;9330;52.210;21.174;2022-12-18T00:32:52;-4.90;99.90
18408;DHT22;9330;52.210;21.174;2022-12-18T00:35:21;-4.90;99.90
18408;DHT22;9330;52.210;21.174;2022-12-18T00:37:47;-4.90;99.90
18408;DHT22;9330;52.210;21.174;2022-12-18T00:40:14;-4.90;99.90
18408;DHT22;9330;52.210;21.174;2022-12-18T00:42:41;-4.90;99.90
18408;DHT22;9330;52.210;21.174;2022-12-18T00:45:23;-4.90;99.90
18408;DHT22;9330;52.210;21.174;2022-12-18T00:47:51;-4.80;99.90
18408;DHT22;9330;52.210;21.174;2022-12-18T00:50:19;-4.80;99.90
18408;DHT22;9330;52.210;21.174;2022-12-18T00:52:46;-4.80;99.90
18408;DHT22;9330;52.210;21.174;2022-12-18T00:55:14;-4.70;99.90
18408;DHT22;9330;52.210;21.174;2022-12-18T00:57:41;-4.90;99.90
18408;DHT22;9330;52.210;21.174;2022-12-18T01:00:10;-4.90;99.90
18408;DHT22;9330;52.210;21.174;2022-12-18T01:02:37;-4.80;99.90
18408;DHT22;9330;52.210;21.174;2022-12-18T01:05:05;-4.80;99.90
18408;DHT22;9330;52.210;21.174;2022-12-18T01:07:33;-4.80;99.90
18408;DHT22;9330;52.210;21.174;2022-12-18T01:10:00;-4.80;99.90
18408;DHT22;9330;52.210;21.174;2022-12-18T01:12:27;-4.80;99.90
18408;DHT22;9330;52.210;21.174;2022-12-18T01:14:54;-4.80;99.90
18408;DHT22;9330;52.210;21.174;2022-12-18T01:17:21;-4.90;99.90
18408;DHT22;9330;52.210;21.174;2022-12-18T01:19:48;-4.80;99.90
18408;DHT22;9330;52.210;21.174;2022-12-18T01:22:15;-4.80;99.90
18408;DHT22;9330;52.210;21.174;2022-12-18T01:24:43;-4.70;99.90
18408;DHT22;9330;52.210;21.174;2022-12-18T01:27:10;-4.90;99.90
18408;DHT22;9330;52.210;21.174;2022-12-18T01:29:37;-4.80;99.90
18408;DHT22;9330;52.210;21.174;2022-12-18T01:32:04;-4.80;99.90
18408;DHT22;9330;52.210;21.174;2022-12-18T01:34:31;-4.80;99.90
18408;DHT22;9330;52.210;21.174;2022-12-18T01:37:02;-4.80;99.90
18408;DHT22;9330;52.210;21.174;2022-12-18T01:39:29;-4.80;99.90
18408;DHT22;9330;52.210;21.174;2022-12-18T01:41:58;-4.80;99.90
18408;DHT22;9330;52.210;21.174;2022-12-18T01:45:03;-4.80;99.90
18408;DHT22;9330;52.210;21.174;2022-12-18T01:47:43;-4.90;99.90
18408;DHT22;9330;52.210;21.174;2022-12-18T01:50:12;-4.90;99.90
18408;DHT22;9330;52.210;21.174;2022-12-18T01:52:41;-4.50;99.90
18408;DHT22;9330;52.210;21.174;2022-12-18T01:55:10;-4.70;99.90
18408;DHT22;9330;52.210;21.174;2022-12-18T01:57:39;-4.60;99.90
18408;DHT22;9330;52.210;21.174;2022-12-18T02:00:10;-4.80;99.90
18408;DHT22;9330;52.210;21.174;2022-12-18T02:02:37;-4.70;99.90
18408;DHT22;9330;52.210;21.174;2022-12-18T02:05:06;-4.70;99.90
18408;DHT22;9330;52.210;21.174;2022-12-18T02:07:41;-4.70;99.90
18408;DHT22;9330;52.210;21.174;2022-12-18T02:10:13;-4.70;99.90
18408;DHT22;9330;52.210;21.174;2022-12-18T02:12:48;-4.70;99.90
18408;DHT22;9330;52.210;21.174;2022-12-18T02:15:24;-4.70;99.90
18408;DHT22;9330;52.210;21.174;2022-12-18T02:17:54;-4.70;99.90
18408;DHT22;9330;52.210;21.174;2022-12-18T02:20:26;-4.70;99.90
18408;DHT22;9330;52.210;21.174;2022-12-18T02:23:08;-4.70;99.90
18408;DHT22;9330;52.210;21.174;2022-12-18T02:25:54;-4.70;99.90
18408;DHT22;9330;52.210;21.174;2022-12-18T02:28:29;-4.70;99.90
18408;DHT22;9330;52.210;21.174;2022-12-18T02:30:59;-4.60;99.90
18408;DHT22;9330;52.210;21.174;2022-12-18T02:33:28;-4.60;99.90
18408;DHT22;9330;52.210;21.174;2022-12-18T02:35:57;-4.60;99.90
18408;DHT22;9330;52.210;21.174;2022-12-18T02:38:25;-4.60;99.90
18408;DHT22;9330;52.210;21.174;2022-12-18T02:40:55;-4.60;99.90
18408;DHT22;9330;52.210;21.174;2022-12-18T02:43:22;-4.40;99.90
18408;DHT22;9330;52.210;21.174;2022-12-18T02:45:52;-4.60;99.90
18408;DHT22;9330;52.210;21.174;2022-12-18T02:48:24;-4.60;99.90
18408;DHT22;9330;52.210;21.174;2022-12-18T02:50:58;-4.60;99.90
18408;DHT22;9330;52.210;21.174;2022-12-18T02:53:30;-4.60;99.90
18408;DHT22;9330;52.210;21.174;2022-12-18T02:56:07;-4.60;99.90
18408;DHT22;9330;52.210;21.174;2022-12-18T02:58:42;-4.70;99.90
18408;DHT22;9330;52.210;21.174;2022-12-18T03:01:15;-4.80;99.90
18408;DHT22;9330;52.210;21.174;2022-12-18T03:03:47;-4.50;99.90
18408;DHT22;9330;52.210;21.174;2022-12-18T03:06:21;-4.70;99.90
18408;DHT22;9330;52.210;21.174;2022-12-18T03:08:54;-4.70;99.90
18408;DHT22;9330;52.210;21.174;2022-12-18T03:11:26;-4.80;99.90
18408;DHT22;9330;52.210;21.174;2022-12-18T03:14:08;-4.80;99.90
18408;DHT22;9330;52.210;21.174;2022-12-18T03:16:36;-4.80;99.90
18408;DHT22;9330;52.210;21.174;2022-12-18T03:19:08;-4.90;99.90
18408;DHT22;9330;52.210;21.174;2022-12-18T03:21:38;-4.80;99.90
18408;DHT22;9330;52.210;21.174;2022-12-18T03:24:09;-4.90;99.90
18408;DHT22;9330;52.210;21.174;2022-12-18T03:26:40;-4.90;99.90
18408;DHT22;9330;52.210;21.174;2022-12-18T03:29:09;-4.90;99.90
18408;DHT22;9330;52.210;21.174;2022-12-18T03:31:40;-4.90;99.90
18408;DHT22;9330;52.210;21.174;2022-12-18T03:34:12;-4.90;99.90
18408;DHT22;9330;52.210;21.174;2022-12-18T03:36:40;-5.00;99.90
18408;DHT22;9330;52.210;21.174;2022-12-18T03:39:07;-5.00;99.90
18408;DHT22;9330;52.210;21.174;2022-12-18T03:41:42;-4.90;99.90
18408;DHT22;9330;52.210;21.174;2022-12-18T03:44:12;-5.00;99.90
18408;DHT22;9330;52.210;21.174;2022-12-18T03:46:46;-4.90;99.90
18408;DHT22;9330;52.210;21.174;2022-12-18T03:49:21;-5.00;99.90
18408;DHT22;9330;52.210;21.174;2022-12-18T03:51:53;-5.00;99.90
18408;DHT22;9330;52.210;21.174;2022-12-18T03:54:21;-5.00;99.90
18408;DHT22;9330;52.210;21.174;2022-12-18T03:57:01;-5.00;99.90
18408;DHT22;9330;52.210;21.174;2022-12-18T03:59:31;-4.90;99.90
18408;DHT22;9330;52.210;21.174;2022-12-18T04:01:59;-5.00;99.90
18408;DHT22;9330;52.210;21.174;2022-12-18T04:04:27;-5.00;99.90
18408;DHT22;9330;52.210;21.174;2022-12-18T04:06:55;-5.00;99.90
18408;DHT22;9330;52.210;21.174;2022-12-18T04:09:24;-5.10;99.90
18408;DHT22;9330;52.210;21.174;2022-12-18T04:11:53;-5.00;99.90
18408;DHT22;9330;52.210;21.174;2022-12-18T04:14:20;-5.10;99.90
18408;DHT22;9330;52.210;21.174;2022-12-18T04:16:47;-5.10;99.90
18408;DHT22;9330;52.210;21.174;2022-12-18T04:19:14;-5.10;99.90
18408;DHT22;9330;52.210;21.174;2022-12-18T04:21:41;-5.10;99.90
18408;DHT22;9330;52.210;21.174;2022-12-18T04:24:08;-5.10;99.90
18408;DHT22;9330;52.210;21.174;2022-12-18T04:26:35;-5.10;99.90
18408;DHT22;9330;52.210;21.174;2022-12-18T04:29:03;-5.10;99.90
18408;DHT22;9330;52.210;21.174;2022-12-18T04:31:30;-5.10;99.90
18408;DHT22;9330;52.210;21.174;2022-12-18T04:33:57;-5.10;99.90
18408;DHT22;9330;52.210;21.174;2022-12-18T04:36:26;-5.20;99.90
18408;DHT22;9330;52.210;21.174;2022-12-18T04:38:54;-5.20;99.90
18408;DHT22;9330;52.210;21.174;2022-12-18T04:41:21;-5.10;99.90
18408;DHT22;9330;52.210;21.174;2022-12-18T04:43:48;-5.10;99.90
18408;DHT22;9330;52.210;21.174;2022-12-18T04:46:16;-5.20;99.90
18408;DHT22;9330;52.210;21.174;2022-12-18T04:48:45;-5.20;99.90
18408;DHT22;9330;52.210;21.174;2022-12-18T04:51:13;-5.20;99.90
18408;DHT22;9330;52.210;21.174;2022-12-18T04:53:40;-5.20;99.90
18408;DHT22;9330;52.210;21.174;2022-12-18T04:56:10;-5.20;99.90
18408;DHT22;9330;52.210;21.174;2022-12-18T04:58:38;-5.10;99.90
18408;DHT22;9330;52.210;21.174;2022-12-18T05:01:05;-5.20;99.90
18408;DHT22;9330;52.210;21.174;2022-12-18T05:03:34;-5.10;99.90
18408;DHT22;9330;52.210;21.174;2022-12-18T05:06:02;-5.20;99.90
18408;DHT22;9330;52.210;21.174;2022-12-18T05:08:29;-5.20;99.90
18408;DHT22;9330;52.210;21.174;2022-12-18T05:10:59;-5.00;99.90
18408;DHT22;9330;52.210;21.174;2022-12-18T05:13:27;-5.10;99.90
18408;DHT22;9330;52.210;21.174;2022-12-18T05:15:54;-5.20;99.90
18408;DHT22;9330;52.210;21.174;2022-12-18T05:18:21;-5.20;99.90
18408;DHT22;9330;52.210;21.174;2022-12-18T05:20:51;-5.30;99.90
18408;DHT22;9330;52.210;21.174;2022-12-18T05:23:20;-5.20;99.90
18408;DHT22;9330;52.210;21.174;2022-12-18T05:25:51;-5.30;99.90
18408;DHT22;9330;52.210;21.174;2022-12-18T05:28:18;-5.10;99.90
18408;DHT22;9330;52.210;21.174;2022-12-18T05:30:48;-5.20;99.90
18408;DHT22;9330;52.210;21.174;2022-12-18T05:33:15;-5.30;99.90
18408;DHT22;9330;52.210;21.174;2022-12-18T05:35:42;-5.30;99.90
18408;DHT22;9330;52.210;21.174;2022-12-18T05:38:11;-5.30;99.90
18408;DHT22;9330;52.210;21.174;2022-12-18T05:40:41;-5.30;99.90
18408;DHT22;9330;52.210;21.174;2022-12-18T05:43:08;-5.30;99.90
18408;DHT22;9330;52.210;21.174;2022-12-18T05:45:37;-5.40;99.90
18408;DHT22;9330;52.210;21.174;2022-12-18T05:48:06;-5.40;99.90
18408;DHT22;9330;52.210;21.174;2022-12-18T05:50:34;-5.40;99.90
18408;DHT22;9330;52.210;21.174;2022-12-18T05:53:01;-5.40;99.90
18408;DHT22;9330;52.210;21.174;2022-12-18T05:55:33;-5.40;99.90
18408;DHT22;9330;52.210;21.174;2022-12-18T05:58:00;-5.40;99.90
18408;DHT22;9330;52.210;21.174;2022-12-18T06:00:27;-5.50;99.90
18408;DHT22;9330;52.210;21.174;2022-12-18T06:02:54;-5.40;99.90
18408;DHT22;9330;52.210;21.174;2022-12-18T06:05:21;-5.50;99.90
18408;DHT22;9330;52.210;21.174;2022-12-18T06:07:48;-5.00;99.90
18408;DHT22;9330;52.210;21.174;2022-12-18T06:10:15;-5.30;99.90
18408;DHT22;9330;52.210;21.174;2022-12-18T06:12:43;-5.50;99.90
18408;DHT22;9330;52.210;21.174;2022-12-18T06:15:10;-5.50;99.90
18408;DHT22;9330;52.210;21.174;2022-12-18T06:17:37;-5.50;99.90
18408;DHT22;9330;52.210;21.174;2022-12-18T06:20:05;-5.40;99.90
18408;DHT22;9330;52.210;21.174;2022-12-18T06:22:32;-5.40;99.90
18408;DHT22;9330;52.210;21.174;2022-12-18T06:25:00;-5.40;99.90
18408;DHT22;9330;52.210;21.174;2022-12-18T06:27:27;-5.30;99.90
18408;DHT22;9330;52.210;21.174;2022-12-18T06:29:55;-5.50;99.90
18408;DHT22;9330;52.210;21.174;2022-12-18T06:32:22;-5.40;99.90
18408;DHT22;9330;52.210;21.174;2022-12-18T06:34:49;-5.50;99.90
18408;DHT22;9330;52.210;21.174;2022-12-18T06:37:16;-5.50;99.90
18408;DHT22;9330;52.210;21.174;2022-12-18T06:39:43;-5.20;99.90
18408;DHT22;9330;52.210;21.174;2022-12-18T06:42:10;-5.50;99.90
18408;DHT22;9330;52.210;21.174;2022-12-18T06:44:37;-5.50;99.90
18408;DHT22;9330;52.210;21.174;2022-12-18T06:47:05;-5.50;99.90
18408;DHT22;9330;52.210;21.174;2022-12-18T06:49:32;-5.30;99.90
18408;DHT22;9330;52.210;21.174;2022-12-18T06:51:59;-5.50;99.90
18408;DHT22;9330;52.210;21.174;2022-12-18T06:54:26;-5.50;99.90
18408;DHT22;9330;52.210;21.174;2022-12-18T06:56:55;-5.60;99.90
18408;DHT22;9330;52.210;21.174;2022-12-18T06:59:22;-5.40;99.90
18408;DHT22;9330;52.210;21.174;2022-12-18T07:01:49;-5.50;99.90
18408;DHT22;9330;52.210;21.174;2022-12-18T07:04:17;-5.40;99.90
18408;DHT22;9330;52.210;21.174;2022-12-18T07:06:44;-5.40;99.90
18408;DHT22;9330;52.210;21.174;2022-12-18T07:09:11;-5.50;99.90
18408;DHT22;9330;52.210;21.174;2022-12-18T07:11:38;-5.50;99.90
18408;DHT22;9330;52.210;21.174;2022-12-18T07:14:05;-5.30;99.90
18408;DHT22;9330;52.210;21.174;2022-12-18T07:16:32;-5.40;99.90
18408;DHT22;9330;52.210;21.174;2022-12-18T07:18:59;-5.40;99.90
18408;DHT22;9330;52.210;21.174;2022-12-18T07:21:27;-5.40;99.90
18408;DHT22;9330;52.210;21.174;2022-12-18T07:23:54;-5.40;99.90
18408;DHT22;9330;52.210;21.174;2022-12-18T07:26:21;-5.40;99.90
18408;DHT22;9330;52.210;21.174;2022-12-18T07:28:48;-5.40;99.90
18408;DHT22;9330;52.210;21.174;2022-12-18T07:31:17;-5.40;99.90
18408;DHT22;9330;52.210;21.174;2022-12-18T07:33:44;-5.30;99.90
18408;DHT22;9330;52.210;21.174;2022-12-18T07:36:12;-5.30;99.90
18408;DHT22;9330;52.210;21.174;2022-12-18T07:38:40;-5.30;99.90
18408;DHT22;9330;52.210;21.174;2022-12-18T07:41:09;-5.30;99.90
18408;DHT22;9330;52.210;21.174;2022-12-18T07:43:36;-5.10;99.90
18408;DHT22;9330;52.210;21.174;2022-12-18T07:46:04;-5.20;99.90
18408;DHT22;9330;52.210;21.174;2022-12-18T07:48:32;-5.20;99.90
18408;DHT22;9330;52.210;21.174;2022-12-18T07:50:59;-5.20;99.90
18408;DHT22;9330;52.210;21.174;2022-12-18T07:53:25;-5.20;99.90
18408;DHT22;9330;52.210;21.174;2022-12-18T07:55:56;-5.10;99.90
18408;DHT22;9330;52.210;21.174;2022-12-18T07:58:23;-5.20;99.90
18408;DHT22;9330;52.210;21.174;2022-12-18T08:00:50;-5.20;99.90
18408;DHT22;9330;52.210;21.174;2022-12-18T08:03:18;-5.10;99.90
18408;DHT22;9330;52.210;21.174;2022-12-18T08:05:45;-5.20;99.90
18408;DHT22;9330;52.210;21.174;2022-12-18T08:08:12;-5.20;99.90
18408;DHT22;9330;52.210;21.174;2022-12-18T08:10:38;-5.10;99.90
18408;DHT22;9330;52.210;21.174;2022-12-18T08:13:07;-5.10;99.90
18408;DHT22;9330;52.210;21.174;2022-12-18T08:15:34;-5.10;99.90
18408;DHT22;9330;52.210;21.174;2022-12-18T08:18:01;-5.10;99.90
18408;DHT22;9330;52.210;21.174;2022-12-18T08:20:27;-4.90;99.90
18408;DHT22;9330;52.210;21.174;2022-12-18T08:22:54;-5.00;99.90
18408;DHT22;9330;52.210;21.174;2022-12-18T08:25:23;-4.90;99.90
18408;DHT22;9330;52.210;21.174;2022-12-18T08:27:50;-4.90;99.90
18408;DHT22;9330;52.210;21.174;2022-12-18T08:30:18;-5.00;99.90
18408;DHT22;9330;52.210;21.174;2022-12-18T08:32:45;-4.90;99.90
18408;DHT22;9330;52.210;21.174;2022-12-18T08:35:13;-4.90;99.90
18408;DHT22;9330;52.210;21.174;2022-12-18T08:37:40;-4.90;99.90
18408;DHT22;9330;52.210;21.174;2022-12-18T08:40:08;-4.80;99.90
18408;DHT22;9330;52.210;21.174;2022-12-18T08:42:35;-4.80;99.90
18408;DHT22;9330;52.210;21.174;2022-12-18T08:45:21;-4.90;99.90
18408;DHT22;9330;52.210;21.174;2022-12-18T08:47:49;-4.70;99.90
18408;DHT22;9330;52.210;21.174;2022-12-18T08:50:16;-4.90;99.90
18408;DHT22;9330;52.210;21.174;2022-12-18T08:52:43;-4.80;99.90
18408;DHT22;9330;52.210;21.174;2022-12-18T08:55:10;-4.50;99.90
18408;DHT22;9330;52.210;21.174;2022-12-18T08:57:37;-4.50;99.90
18408;DHT22;9330;52.210;21.174;2022-12-18T09:00:05;-4.50;99.90
18408;DHT22;9330;52.210;21.174;2022-12-18T09:02:34;-4.50;99.90
18408;DHT22;9330;52.210;21.174;2022-12-18T09:05:01;-4.50;99.90
18408;DHT22;9330;52.210;21.174;2022-12-18T09:07:28;-4.40;99.90
18408;DHT22;9330;52.210;21.174;2022-12-18T09:09:55;-4.40;99.90
18408;DHT22;9330;52.210;21.174;2022-12-18T09:12:22;-4.30;99.90
18408;DHT22;9330;52.210;21.174;2022-12-18T09:14:49;-4.40;99.90
18408;DHT22;9330;52.210;21.174;2022-12-18T09:17:16;-4.30;99.90
18408;DHT22;9330;52.210;21.174;2022-12-18T09:19:44;-4.20;99.90
18408;DHT22;9330;52.210;21.174;2022-12-18T09:22:11;-4.20;99.90
18408;DHT22;9330;52.210;21.174;2022-12-18T09:24:38;-4.10;99.90
18408;DHT22;9330;52.210;21.174;2022-12-18T09:27:05;-4.10;99.90
18408;DHT22;9330;52.210;21.174;2022-12-18T09:29:32;-4.10;99.90
18408;DHT22;9330;52.210;21.174;2022-12-18T09:31:59;-4.00;99.90
18408;DHT22;9330;52.210;21.174;2022-12-18T09:34:26;-3.90;99.90
18408;DHT22;9330;52.210;21.174;2022-12-18T09:36:54;-4.00;99.90
18408;DHT22;9330;52.210;21.174;2022-12-18T09:39:21;-3.90;99.90
18408;DHT22;9330;52.210;21.174;2022-12-18T09:41:52;-3.90;99.90
18408;DHT22;9330;52.210;21.174;2022-12-18T09:44:23;-3.90;99.90
18408;DHT22;9330;52.210;21.174;2022-12-18T09:46:56;-3.80;99.90
18408;DHT22;9330;52.210;21.174;2022-12-18T09:49:29;-3.80;99.90
18408;DHT22;9330;52.210;21.174;2022-12-18T09:52:02;-3.80;99.90
18408;DHT22;9330;52.210;21.174;2022-12-18T09:54:33;-3.70;99.90
18408;DHT22;9330;52.210;21.174;2022-12-18T09:57:02;-3.80;99.90
18408;DHT22;9330;52.210;21.174;2022-12-18T09:59:33;-3.70;99.90
18408;DHT22;9330;52.210;21.174;2022-12-18T10:02:12;-3.70;99.90
18408;DHT22;9330;52.210;21.174;2022-12-18T10:04:40;-3.60;99.90
18408;DHT22;9330;52.210;21.174;2022-12-18T10:07:14;-3.50;99.90
18408;DHT22;9330;52.210;21.174;2022-12-18T10:09:48;-3.60;99.90
18408;DHT22;9330;52.210;21.174;2022-12-18T10:12:23;-3.50;99.90
18408;DHT22;9330;52.210;21.174;2022-12-18T10:14:57;-3.70;99.90
18408;DHT22;9330;52.210;21.174;2022-12-18T10:17:32;-3.60;99.90
18408;DHT22;9330;52.210;21.174;2022-12-18T10:20:09;-3.50;99.90
18408;DHT22;9330;52.210;21.174;2022-12-18T10:22:46;-3.50;99.90
18408;DHT22;9330;52.210;21.174;2022-12-18T10:25:21;-3.40;99.90
18408;DHT22;9330;52.210;21.174;2022-12-18T10:27:52;-3.30;99.90
18408;DHT22;9330;52.210;21.174;2022-12-18T10:30:21;-3.30;99.90
18408;DHT22;9330;52.210;21.174;2022-12-18T10:32:48;-3.20;99.90
18408;DHT22;9330;52.210;21.174;2022-12-18T10:35:19;-3.20;99.90
18408;DHT22;9330;52.210;21.174;2022-12-18T10:38:19;-3.10;99.90
18408;DHT22;9330;52.210;21.174;2022-12-18T10:40:52;-3.10;99.90
18408;DHT22;9330;52.210;21.174;2022-12-18T10:43:24;-3.20;99.90
18408;DHT22;9330;52.210;21.174;2022-12-18T10:46:01;-3.10;99.90
18408;DHT22;9330;52.210;21.174;2022-12-18T10:48:30;-2.90;99.90
18408;DHT22;9330;52.210;21.174;2022-12-18T10:50:58;-3.10;99.90
18408;DHT22;9330;52.210;21.174;2022-12-18T10:53:27;-3.10;99.90
18408;DHT22;9330;52.210;21.174;2022-12-18T10:55:57;-3.10;99.90
18408;DHT22;9330;52.210;21.174;2022-12-18T10:58:29;-3.00;99.90
18408;DHT22;9330;52.210;21.174;2022-12-18T11:01:06;-3.30;99.90
18408;DHT22;9330;52.210;21.174;2022-12-18T11:03:35;-3.20;99.90
18408;DHT22;9330;52.210;21.174;2022-12-18T11:06:05;-3.10;99.90
18408;DHT22;9330;52.210;21.174;2022-12-18T11:08:34;-3.40;99.90
18408;DHT22;9330;52.210;21.174;2022-12-18T11:11:01;-3.40;99.90
18408;DHT22;9330;52.210;21.174;2022-12-18T11:13:29;-3.30;99.90
18408;DHT22;9330;52.210;21.174;2022-12-18T11:15:57;-3.20;99.90
18408;DHT22;9330;52.210;21.174;2022-12-18T11:18:27;-3.30;99.90
18408;DHT22;9330;52.210;21.174;2022-12-18T11:20:56;-3.30;99.90
18408;DHT22;9330;52.210;21.174;2022-12-18T11:23:24;-3.30;99.90
18408;DHT22;9330;52.210;21.174;2022-12-18T11:25:56;-3.30;99.90
18408;DHT22;9330;52.210;21.174;2022-12-18T11:28:37;-3.30;99.90
18408;DHT22;9330;52.210;21.174;2022-12-18T11:31:23;-3.30;99.90
18408;DHT22;9330;52.210;21.174;2022-12-18T11:33:56;-3.10;99.90
18408;DHT22;9330;52.210;21.174;2022-12-18T11:36:30;-3.20;99.90
18408;DHT22;9330;52.210;21.174;2022-12-18T11:39:00;-3.10;99.90
18408;DHT22;9330;52.210;21.174;2022-12-18T11:41:34;-3.00;99.90
18408;DHT22;9330;52.210;21.174;2022-12-18T11:44:25;-2.90;99.90
18408;DHT22;9330;52.210;21.174;2022-12-18T11:46:59;-3.10;99.90
18408;DHT22;9330;52.210;21.174;2022-12-18T11:49:29;-3.00;99.90
18408;DHT22;9330;52.210;21.174;2022-12-18T11:52:04;-3.00;99.90
18408;DHT22;9330;52.210;21.174;2022-12-18T11:54:35;-3.10;99.90
18408;DHT22;9330;52.210;21.174;2022-12-18T11:57:10;-3.20;99.90
18408;DHT22;9330;52.210;21.174;2022-12-18T11:59:47;-3.10;99.90
18408;DHT22;9330;52.210;21.174;2022-12-18T12:02:28;-3.20;99.90
18408;DHT22;9330;52.210;21.174;2022-12-18T12:05:10;-3.00;99.90
18408;DHT22;9330;52.210;21.174;2022-12-18T12:07:47;-3.10;99.90
18408;DHT22;9330;52.210;21.174;2022-12-18T12:10:32;-3.10;99.90
18408;DHT22;9330;52.210;21.174;2022-12-18T12:13:16;-3.20;99.90
18408;DHT22;9330;52.210;21.174;2022-12-18T12:15:53;-3.20;99.90
18408;DHT22;9330;52.210;21.174;2022-12-18T12:18:30;-3.20;99.90
18408;DHT22;9330;52.210;21.174;2022-12-18T12:21:04;-3.10;99.90
18408;DHT22;9330;52.210;21.174;2022-12-18T12:23:41;-3.10;99.90
18408;DHT22;9330;52.210;21.174;2022-12-18T12:26:16;-3.10;99.90
18408;DHT22;9330;52.210;21.174;2022-12-18T12:29:01;-3.20;99.90
18408;DHT22;9330;52.210;21.174;2022-12-18T12:31:42;-3.20;99.90
18408;DHT22;9330;52.210;21.174;2022-12-18T12:34:18;-3.20;99.90
18408;DHT22;9330;52.210;21.174;2022-12-18T12:36:59;-3.30;99.90
18408;DHT22;9330;52.210;21.174;2022-12-18T12:39:32;-3.20;99.90
18408;DHT22;9330;52.210;21.174;2022-12-18T12:42:00;-3.20;99.90
18408;DHT22;9330;52.210;21.174;2022-12-18T12:44:51;-3.30;99.90
18408;DHT22;9330;52.210;21.174;2022-12-18T12:47:23;-3.30;99.90
18408;DHT22;9330;52.210;21.174;2022-12-18T12:49:52;-3.30;99.90
18408;DHT22;9330;52.210;21.174;2022-12-18T12:52:27;-3.30;99.90
18408;DHT22;9330;52.210;21.174;2022-12-18T12:54:55;-3.10;99.90
18408;DHT22;9330;52.210;21.174;2022-12-18T12:57:27;-3.20;99.90
18408;DHT22;9330;52.210;21.174;2022-12-18T13:00:03;-3.20;99.90
18408;DHT22;9330;52.210;21.174;2022-12-18T13:02:37;-3.20;99.90
18408;DHT22;9330;52.210;21.174;2022-12-18T13:05:12;-3.20;99.90
18408;DHT22;9330;52.210;21.174;2022-12-18T13:07:49;-3.20;99.90
18408;DHT22;9330;52.210;21.174;2022-12-18T13:10:34;-3.20;99.90
18408;DHT22;9330;52.210;21.174;2022-12-18T13:13:03;-3.30;99.90
18408;DHT22;9330;52.210;21.174;2022-12-18T13:15:34;-3.20;99.90
18408;DHT22;9330;52.210;21.174;2022-12-18T13:18:05;-3.30;99.90
18408;DHT22;9330;52.210;21.174;2022-12-18T13:20:34;-3.20;99.90
18408;DHT22;9330;52.210;21.174;2022-12-18T13:23:19;-3.30;99.90
18408;DHT22;9330;52.210;21.174;2022-12-18T13:25:46;-3.30;99.90
18408;DHT22;9330;52.210;21.174;2022-12-18T13:28:14;-3.40;99.90
18408;DHT22;9330;52.210;21.174;2022-12-18T13:30:56;-3.20;99.90
18408;DHT22;9330;52.210;21.174;2022-12-18T13:33:41;-3.10;99.90
18408;DHT22;9330;52.210;21.174;2022-12-18T13:36:28;-3.30;99.90
18408;DHT22;9330;52.210;21.174;2022-12-18T13:39:20;-3.30;99.90
18408;DHT22;9330;52.210;21.174;2022-12-18T13:41:49;-3.30;99.90
18408;DHT22;9330;52.210;21.174;2022-12-18T13:44:25;-3.40;99.90
18408;DHT22;9330;52.210;21.174;2022-12-18T13:46:54;-3.10;99.90
18408;DHT22;9330;52.210;21.174;2022-12-18T13:49:24;-3.40;99.90
18408;DHT22;9330;52.210;21.174;2022-12-18T13:51:53;-3.40;99.90
18408;DHT22;9330;52.210;21.174;2022-12-18T13:54:25;-3.40;99.90
18408;DHT22;9330;52.210;21.174;2022-12-18T13:56:55;-3.40;99.90
18408;DHT22;9330;52.210;21.174;2022-12-18T13:59:24;-3.50;99.90
18408;DHT22;9330;52.210;21.174;2022-12-18T14:01:55;-3.50;99.90
18408;DHT22;9330;52.210;21.174;2022-12-18T14:04:27;-3.30;99.90
18408;DHT22;9330;52.210;21.174;2022-12-18T14:06:58;-3.30;99.90
18408;DHT22;9330;52.210;21.174;2022-12-18T14:09:27;-3.50;99.90
18408;DHT22;9330;52.210;21.174;2022-12-18T14:11:56;-3.40;99.90
18408;DHT22;9330;52.210;21.174;2022-12-18T14:14:41;-3.40;99.90
18408;DHT22;9330;52.210;21.174;2022-12-18T14:17:10;-3.50;99.90
18408;DHT22;9330;52.210;21.174;2022-12-18T14:19:42;-3.20;99.90
18408;DHT22;9330;52.210;21.174;2022-12-18T14:22:14;-3.40;99.90
18408;DHT22;9330;52.210;21.174;2022-12-18T14:24:42;-3.40;99.90
18408;DHT22;9330;52.210;21.174;2022-12-18T14:27:23;-3.40;99.90
18408;DHT22;9330;52.210;21.174;2022-12-18T14:29:51;-3.50;99.90
18408;DHT22;9330;52.210;21.174;2022-12-18T14:32:20;-3.30;99.90
18408;DHT22;9330;52.210;21.174;2022-12-18T14:34:49;-3.40;99.90
18408;DHT22;9330;52.210;21.174;2022-12-18T14:37:20;-3.40;99.90
18408;DHT22;9330;52.210;21.174;2022-12-18T14:39:55;-3.50;99.90
18408;DHT22;9330;52.210;21.174;2022-12-18T14:42:24;-3.50;99.90
18408;DHT22;9330;52.210;21.174;2022-12-18T14:47:55;-3.40;99.90
18408;DHT22;9330;52.210;21.174;2022-12-18T14:50:22;-3.50;99.90
18408;DHT22;9330;52.210;21.174;2022-12-18T14:52:49;-3.40;99.90
18408;DHT22;9330;52.210;21.174;2022-12-18T14:55:16;-3.50;99.90
18408;DHT22;9330;52.210;21.174;2022-12-18T14:57:44;-3.50;99.90
18408;DHT22;9330;52.210;21.174;2022-12-18T15:00:16;-3.50;99.90
18408;DHT22;9330;52.210;21.174;2022-12-18T15:02:45;-3.50;99.90
18408;DHT22;9330;52.210;21.174;2022-12-18T15:05:19;-3.60;99.90
18408;DHT22;9330;52.210;21.174;2022-12-18T15:07:47;-3.40;99.90
18408;DHT22;9330;52.210;21.174;2022-12-18T15:10:17;-3.60;99.90
18408;DHT22;9330;52.210;21.174;2022-12-18T15:12:45;-3.40;99.90
18408;DHT22;9330;52.210;21.174;2022-12-18T15:15:44;-3.50;99.90
18408;DHT22;9330;52.210;21.174;2022-12-18T15:18:13;-3.50;99.90
18408;DHT22;9330;52.210;21.174;2022-12-18T15:20:45;-3.50;99.90
18408;DHT22;9330;52.210;21.174;2022-12-18T15:23:16;-3.50;99.90
18408;DHT22;9330;52.210;21.174;2022-12-18T15:25:44;-3.50;99.90
18408;DHT22;9330;52.210;21.174;2022-12-18T15:28:21;-3.60;99.90
18408;DHT22;9330;52.210;21.174;2022-12-18T15:30:59;-3.30;99.90
18408;DHT22;9330;52.210;21.174;2022-12-18T15:33:30;-3.50;99.90
18408;DHT22;9330;52.210;21.174;2022-12-18T15:36:00;-3.60;99.90
18408;DHT22;9330;52.210;21.174;2022-12-18T15:38:27;-3.50;99.90
18408;DHT22;9330;52.210;21.174;2022-12-18T15:40:54;-3.50;99.90
18408;DHT22;9330;52.210;21.174;2022-12-18T15:43:22;-3.50;99.90
18408;DHT22;9330;52.210;21.174;2022-12-18T15:46:03;-3.60;99.90
18408;DHT22;9330;52.210;21.174;2022-12-18T15:48:31;-3.40;99.90
18408;DHT22;9330;52.210;21.174;2022-12-18T15:51:00;-3.50;99.90
18408;DHT22;9330;52.210;21.174;2022-12-18T15:53:30;-3.50;99.90